Time;durP1;ratioP1;P1;durP2;ratioP2;P2;SDS_P1;SDS_P2;PMS_P1;PMS_P2;Temp;Humidity;BMP_temperature;BMP_pressure;BME280_temperature;BME280_humidity;BME280_pressure;Samples;Min_cycle;Max_cycle;Signal;HPM_P1;HPM_P2
2021/10/20 00:02:04;;;;;;;3.87;2.10;;;;;;;21.20;53.43;101007.09;4993334;28;20291;-61
2021/10/20 00:04:32;;;;;;;4.00;2.03;;;;;;;21.19;53.53;101008.91;4993179;28;20030;-61
2021/10/20 00:06:59;;;;;;;3.65;1.75;;;;;;;21.18;53.62;101004.59;4992952;28;20030;-61
2021/10/20 00:09:24;;;;;;;3.13;1.90;;;;;;;21.18;53.49;101001.09;4993664;28;20041;-62
2021/10/20 00:11:50;;;;;;;3.88;2.10;;;;;;;21.16;53.42;101001.25;4992765;28;20034;-61
2021/10/20 00:14:15;;;;;;;3.65;1.90;;;;;;;21.14;53.64;100992.63;4992981;28;20057;-61
2021/10/20 00:16:41;;;;;;;3.80;2.00;;;;;;;21.15;53.57;100990.78;4993599;28;20101;-61
2021/10/20 00:19:06;;;;;;;3.30;1.80;;;;;;;21.13;53.52;100985.63;4992500;28;20378;-61
2021/10/20 00:21:32;;;;;;;4.90;1.80;;;;;;;21.14;53.44;100986.47;4993468;28;20125;-61
2021/10/20 00:23:59;;;;;;;3.88;1.92;;;;;;;21.13;53.59;100984.81;4992990;28;20335;-61
2021/10/20 00:26:24;;;;;;;4.05;1.92;;;;;;;21.13;53.54;100988.28;4992496;28;20033;-61
2021/10/20 00:28:50;;;;;;;3.60;1.98;;;;;;;21.13;53.38;100979.50;4993231;28;20104;-61
2021/10/20 00:31:15;;;;;;;4.10;1.73;;;;;;;21.13;53.44;100990.09;4993029;28;20041;-62
2021/10/20 00:33:41;;;;;;;3.72;1.80;;;;;;;21.12;53.41;100985.78;4992615;28;20065;-62
2021/10/20 00:36:06;;;;;;;3.22;1.83;;;;;;;21.12;53.51;100967.22;4993100;28;20018;-62
2021/10/20 00:38:31;;;;;;;3.78;2.00;;;;;;;21.11;53.35;100958.44;4992485;28;20018;-61
2021/10/20 00:40:57;;;;;;;4.10;1.83;;;;;;;21.10;53.38;100958.59;4992750;28;20093;-62
2021/10/20 00:43:24;;;;;;;3.10;1.80;;;;;;;21.09;53.44;100956.91;4993135;28;20097;-62
2021/10/20 00:45:50;;;;;;;3.70;1.88;;;;;;;21.09;53.38;100955.06;4992467;28;20022;-62
2021/10/20 00:48:15;;;;;;;3.40;1.60;;;;;;;21.10;53.34;100958.59;4992903;28;20161;-61
2021/10/20 00:50:41;;;;;;;3.47;1.90;;;;;;;21.10;53.46;100942.69;4993076;28;20034;-61
2021/10/20 00:53:06;;;;;;;4.10;1.70;;;;;;;21.08;53.24;100945.47;4991922;28;20034;-61
2021/10/20 00:55:32;;;;;;;4.38;1.85;;;;;;;21.07;53.07;100948.28;4992803;28;20038;-61
2021/10/20 00:57:57;;;;;;;3.50;1.80;;;;;;;21.07;53.24;100948.28;4992579;28;20403;-63
2021/10/20 01:00:23;;;;;;;3.85;1.80;;;;;;;21.06;53.42;100941.28;4992330;28;20026;-62
2021/10/20 01:02:49;;;;;;;4.20;1.80;;;;;;;21.05;53.31;100929.88;4993079;28;20042;-62
2021/10/20 01:05:15;;;;;;;3.88;1.90;;;;;;;21.02;53.36;100920.38;4992671;28;20053;-61
2021/10/20 01:07:41;;;;;;;4.43;1.80;;;;;;;21.04;53.34;100916.75;4992134;28;20359;-61
2021/10/20 01:10:09;;;;;;;2.72;1.58;;;;;;;21.03;53.24;100910.63;4992561;28;20521;-62
2021/10/20 01:12:38;;;;;;;3.50;1.90;;;;;;;21.02;53.41;100912.41;4992642;28;20068;-61
2021/10/20 01:15:07;;;;;;;3.50;1.83;;;;;;;21.02;53.28;100916.91;4991438;28;20438;-61
2021/10/20 01:17:36;;;;;;;3.63;1.83;;;;;;;21.01;53.16;100916.06;4993486;28;20114;-62
2021/10/20 01:20:04;;;;;;;2.97;1.60;;;;;;;21.02;53.36;100908.94;4996162;28;20027;-61
2021/10/20 01:22:29;;;;;;;3.53;1.77;;;;;;;20.99;53.20;100904.75;4995574;28;20214;-61
2021/10/20 01:24:58;;;;;;;4.22;1.92;;;;;;;20.99;53.23;100901.28;4996317;28;20461;-62
2021/10/20 01:27:23;;;;;;;4.00;2.00;;;;;;;20.99;53.25;100893.34;4996334;28;20084;-60
2021/10/20 01:29:48;;;;;;;3.60;1.95;;;;;;;20.99;53.15;100896.81;4995749;28;20050;-61
2021/10/20 01:32:14;;;;;;;3.03;1.60;;;;;;;20.97;53.31;100890.81;4996045;28;20481;-62
2021/10/20 01:34:39;;;;;;;3.58;1.67;;;;;;;20.96;53.22;100881.19;4996457;28;20035;-62
2021/10/20 01:37:05;;;;;;;3.80;1.60;;;;;;;20.96;53.29;100880.38;4995381;28;20027;-61
2021/10/20 01:39:32;;;;;;;3.28;1.80;;;;;;;20.95;53.30;100876.03;4996343;28;20034;-62
2021/10/20 01:41:57;;;;;;;3.65;1.70;;;;;;;20.95;53.27;100876.03;4995398;28;20019;-62
2021/10/20 01:44:23;;;;;;;2.92;1.65;;;;;;;20.94;53.27;100874.38;4996464;28;20089;-62
2021/10/20 01:46:48;;;;;;;3.63;1.80;;;;;;;20.93;53.17;100876.19;4996347;28;20030;-61
2021/10/20 01:49:14;;;;;;;4.22;1.65;;;;;;;20.92;53.15;100873.66;4995059;28;20028;-61
2021/10/20 01:51:39;;;;;;;3.35;1.80;;;;;;;20.92;53.07;100869.22;4996033;28;20058;-62
2021/10/20 01:54:06;;;;;;;3.40;1.88;;;;;;;20.91;53.20;100866.72;4995360;28;20089;-61
2021/10/20 01:56:35;;;;;;;4.32;1.63;;;;;;;20.90;53.30;100871.16;4995665;28;20023;-62
2021/10/20 01:59:01;;;;;;;3.72;1.95;;;;;;;20.90;53.26;100863.22;4995639;28;20061;-62
2021/10/20 02:01:26;;;;;;;3.88;1.85;;;;;;;20.90;53.27;100857.91;4995874;28;20050;-61
2021/10/20 02:03:52;;;;;;;3.63;1.70;;;;;;;20.89;53.16;100858.09;4995149;28;20129;-61
2021/10/20 02:06:19;;;;;;;2.97;1.65;;;;;;;20.89;53.21;100842.19;4995473;28;20023;-62
2021/10/20 02:08:45;;;;;;;3.47;1.92;;;;;;;20.88;53.24;100849.28;4995544;28;20031;-62
2021/10/20 02:11:11;;;;;;;3.65;1.80;;;;;;;20.88;53.25;100844.00;4994671;28;20057;-62
2021/10/20 02:13:39;;;;;;;3.70;1.58;;;;;;;20.88;53.28;100840.50;4995686;28;20034;-62
2021/10/20 02:16:11;;;;;;;4.07;1.88;;;;;;;20.87;53.23;100826.44;4995127;28;20049;-61
2021/10/20 02:18:37;;;;;;;3.20;1.80;;;;;;;20.87;53.21;100831.75;4994885;28;20109;-61
2021/10/20 02:21:03;;;;;;;3.03;1.60;;;;;;;20.87;53.19;100825.59;4995077;28;20058;-61
2021/10/20 02:23:30;;;;;;;3.90;1.90;;;;;;;20.87;53.12;100830.88;4995377;28;20544;-61
2021/10/20 02:25:55;;;;;;;2.80;1.60;;;;;;;20.84;53.26;100835.50;4994340;28;20508;-62
2021/10/20 02:28:21;;;;;;;3.30;1.93;;;;;;;20.84;53.29;100835.50;4994616;28;20038;-61
2021/10/20 02:30:48;;;;;;;3.30;1.75;;;;;;;20.85;53.45;100833.69;4995175;28;20693;-61
2021/10/20 02:33:13;;;;;;;3.63;1.80;;;;;;;20.84;53.17;100816.97;4994210;28;20022;-62
2021/10/20 02:35:39;;;;;;;3.70;1.83;;;;;;;20.85;52.91;100823.09;4995165;28;20351;-61
2021/10/20 02:38:04;;;;;;;3.20;1.73;;;;;;;20.84;53.03;100824.91;4994062;28;20393;-61
2021/10/20 02:40:29;;;;;;;3.50;1.70;;;;;;;20.83;53.10;100812.63;4994885;28;20034;-62
2021/10/20 02:42:55;;;;;;;4.18;1.70;;;;;;;20.83;53.19;100815.28;4995247;28;20018;-62
2021/10/20 02:45:21;;;;;;;3.28;1.60;;;;;;;20.84;53.13;100818.78;4993971;28;20034;-62
2021/10/20 02:47:46;;;;;;;3.03;1.52;;;;;;;20.83;53.21;100807.34;4994998;28;20022;-62
2021/10/20 02:50:12;;;;;;;3.63;1.88;;;;;;;20.83;53.12;100809.97;4994614;28;20081;-62
2021/10/20 02:52:37;;;;;;;2.92;1.50;;;;;;;20.83;53.03;100802.03;4994043;28;20493;-62
2021/10/20 02:55:04;;;;;;;4.85;1.85;;;;;;;20.83;53.06;100811.81;4994593;28;20050;-62
2021/10/20 02:57:30;;;;;;;4.13;1.70;;;;;;;20.82;53.18;100803.03;4994954;28;20022;-61
2021/10/20 02:59:57;;;;;;;3.50;1.83;;;;;;;20.82;52.71;100796.88;4994114;28;20363;-61
2021/10/20 03:02:22;;;;;;;2.83;1.50;;;;;;;20.83;53.19;100798.56;4994689;28;20466;-62
2021/10/20 03:04:50;;;;;;;3.50;1.83;;;;;;;20.83;52.88;100806.50;4994799;28;20030;-62
2021/10/20 03:07:25;;;;;;;3.70;1.80;;;;;;;20.81;53.00;100793.41;4993498;28;20026;-62
2021/10/20 03:09:50;;;;;;;4.07;1.92;;;;;;;20.81;53.05;100789.94;4994738;28;20080;-62
2021/10/20 03:12:15;;;;;;;3.55;1.88;;;;;;;20.80;53.03;100785.59;4994160;28;20477;-62
2021/10/20 03:14:41;;;;;;;7.93;2.00;;;;;;;20.79;53.09;100784.78;4993727;28;20045;-62
2021/10/20 03:17:07;;;;;;;3.45;1.80;;;;;;;20.80;52.89;100778.47;4994047;28;20023;-62
2021/10/20 03:19:35;;;;;;;3.63;1.85;;;;;;;20.80;53.01;100765.25;4994296;28;20482;-61
2021/10/20 03:22:00;;;;;;;3.55;1.50;;;;;;;20.80;53.22;100778.47;4993107;28;20124;-62
2021/10/20 03:24:25;;;;;;;3.33;1.80;;;;;;;20.80;53.03;100777.66;4994195;28;20486;-61
2021/10/20 03:26:50;;;;;;;3.00;1.60;;;;;;;20.79;53.00;100783.94;4994087;28;20027;-61
2021/10/20 03:29:16;;;;;;;4.50;1.87;;;;;;;20.79;53.10;100779.47;4993018;28;20117;-62
2021/10/20 03:31:44;;;;;;;3.27;1.63;;;;;;;20.79;53.16;100779.47;4994127;28;20334;-61
2021/10/20 03:34:09;;;;;;;3.67;1.90;;;;;;;20.79;52.96;100775.97;4993668;28;20346;-61
2021/10/20 03:36:34;;;;;;;3.47;1.90;;;;;;;20.77;52.89;100770.81;4993425;28;20390;-61
2021/10/20 03:39:00;;;;;;;3.27;1.70;;;;;;;20.78;53.01;100771.69;4993558;28;20031;-61
2021/10/20 03:41:25;;;;;;;3.75;1.80;;;;;;;20.76;52.79;100771.81;4992548;28;20279;-61
2021/10/20 03:43:51;;;;;;;3.83;2.00;;;;;;;20.76;52.91;100763.03;4994277;28;20453;-61
2021/10/20 03:46:16;;;;;;;3.58;1.63;;;;;;;20.77;53.21;100762.06;4993791;28;20421;-61
2021/10/20 03:48:41;;;;;;;3.55;1.77;;;;;;;20.76;52.89;100761.22;4993463;28;20089;-62
2021/10/20 03:51:07;;;;;;;4.17;2.00;;;;;;;20.76;53.10;100758.59;4993995;28;20030;-61
2021/10/20 03:53:32;;;;;;;3.88;2.00;;;;;;;20.75;52.88;100754.25;4994640;28;20688;-61
2021/10/20 03:55:58;;;;;;;4.05;1.95;;;;;;;20.75;53.00;100748.13;4994003;28;20053;-62
2021/10/20 03:58:23;;;;;;;3.38;1.88;;;;;;;20.75;52.83;100753.44;4994458;28;20029;-62
2021/10/20 04:00:50;;;;;;;3.53;2.00;;;;;;;20.75;53.00;100751.59;4994373;28;20065;-61
2021/10/20 04:03:18;;;;;;;3.15;1.70;;;;;;;20.72;53.15;100751.88;4992677;28;20312;-61
2021/10/20 04:05:44;;;;;;;4.25;2.15;;;;;;;20.72;53.14;100743.13;4993974;28;20043;-62
2021/10/20 04:08:09;;;;;;;3.03;1.63;;;;;;;20.71;53.07;100734.34;4993320;28;20037;-62
2021/10/20 04:10:34;;;;;;;2.78;1.52;;;;;;;20.72;53.15;100732.53;4993458;28;20396;-60
2021/10/20 04:13:00;;;;;;;3.70;1.93;;;;;;;20.72;52.85;100719.28;4993200;28;20531;-61
2021/10/20 04:15:26;;;;;;;3.80;1.88;;;;;;;20.70;52.96;100715.97;4993631;28;20339;-61
2021/10/20 04:17:52;;;;;;;3.72;1.90;;;;;;;20.72;52.98;100706.88;4993206;28;20038;-61
2021/10/20 04:20:19;;;;;;;3.63;1.85;;;;;;;20.72;52.89;100719.28;4992966;28;20109;-62
2021/10/20 04:22:46;;;;;;;3.60;1.90;;;;;;;20.72;53.06;100712.16;4993664;28;20447;-61
2021/10/20 04:25:12;;;;;;;3.78;2.13;;;;;;;20.71;53.12;100713.16;4992571;28;20053;-60
2021/10/20 04:27:44;;;;;;;3.58;2.03;;;;;;;20.71;53.07;100699.06;4993577;28;20023;-65
2021/10/20 04:30:12;;;;;;;3.80;1.70;;;;;;;20.71;53.03;100702.56;4993670;28;20053;-64
2021/10/20 04:32:38;;;;;;;4.30;1.60;;;;;;;20.70;52.94;100694.78;4992362;28;20033;-62
2021/10/20 04:35:09;;;;;;;3.50;1.88;;;;;;;20.70;52.92;100692.13;4993035;28;20034;-62
2021/10/20 04:37:35;;;;;;;3.63;1.90;;;;;;;20.70;53.01;100678.88;4993868;28;20043;-62
2021/10/20 04:40:02;;;;;;;4.32;1.90;;;;;;;20.70;52.97;100684.19;4992294;28;20037;-62
2021/10/20 04:42:29;;;;;;;4.03;1.80;;;;;;;20.69;52.88;100693.09;4993095;28;20107;-61
2021/10/20 04:45:12;;;;;;;3.35;1.85;;;;;;;20.69;52.79;100683.31;4992549;28;20026;-62
2021/10/20 04:47:38;;;;;;;3.65;1.77;;;;;;;20.68;52.97;100684.31;4993680;28;20037;-62
2021/10/20 04:50:10;;;;;;;4.03;1.90;;;;;;;20.68;53.14;100675.53;4993068;28;20483;-62
2021/10/20 04:52:36;;;;;;;3.60;1.70;;;;;;;20.67;52.88;100664.13;4991769;28;20046;-62
2021/10/20 04:55:04;;;;;;;3.38;1.77;;;;;;;20.68;52.85;100662.28;4992507;28;20395;-60
2021/10/20 04:57:29;;;;;;;4.53;1.60;;;;;;;20.67;52.95;100652.69;4992923;28;20057;-60
2021/10/20 04:59:54;;;;;;;4.13;1.85;;;;;;;20.68;52.96;100651.69;4992199;28;20408;-62
2021/10/20 05:02:27;;;;;;;4.00;2.05;;;;;;;20.67;52.75;100642.94;4992638;28;20026;-62
2021/10/20 05:05:01;;;;;;;3.70;1.88;;;;;;;20.67;52.86;100650.06;4993037;28;20041;-62
2021/10/20 05:07:26;;;;;;;3.97;2.03;;;;;;;20.66;52.67;100654.50;4992355;28;20046;-62
2021/10/20 05:09:52;;;;;;;3.50;1.95;;;;;;;20.65;52.81;100645.72;4992852;28;20022;-62
2021/10/20 05:12:17;;;;;;;3.40;1.80;;;;;;;20.64;52.82;100649.34;4992418;28;20367;-62
2021/10/20 05:14:42;;;;;;;3.60;1.80;;;;;;;20.62;52.84;100653.91;4992301;28;20268;-62
2021/10/20 05:17:07;;;;;;;3.70;1.98;;;;;;;20.64;52.75;100646.69;4992680;28;20355;-60
2021/10/20 05:19:33;;;;;;;3.43;1.70;;;;;;;20.69;52.36;100640.13;4992938;28;20032;-60
2021/10/20 05:21:58;;;;;;;3.88;2.00;;;;;;;20.73;52.61;100630.91;4991784;28;20057;-60
2021/10/20 05:24:23;;;;;;;3.70;2.10;;;;;;;20.72;52.77;100622.13;4991916;28;20528;-65
2021/10/20 05:26:54;;;;;;;3.70;1.80;;;;;;;20.71;52.71;100631.06;4992690;28;20695;-62
2021/10/20 05:29:19;;;;;;;3.72;2.00;;;;;;;20.75;52.98;100629.78;4992346;28;20566;-64
2021/10/20 05:31:44;;;;;;;3.60;1.98;;;;;;;20.85;52.65;100621.78;4992782;28;20118;-64
2021/10/20 05:34:09;;;;;;;3.73;1.90;;;;;;;20.94;52.31;100622.72;4991644;28;20088;-65
2021/10/20 05:36:35;;;;;;;3.40;1.80;;;;;;;21.05;52.10;100627.00;4992530;28;20310;-64
2021/10/20 05:39:00;;;;;;;3.53;1.80;;;;;;;21.13;51.81;100625.25;4992299;28;20276;-61
2021/10/20 05:41:25;;;;;;;3.28;1.60;;;;;;;21.19;51.63;100614.06;4991849;28;20092;-64
2021/10/20 05:43:50;;;;;;;3.50;1.70;;;;;;;21.26;51.42;100618.75;4992909;28;20026;-63
2021/10/20 05:46:16;;;;;;;3.17;1.80;;;;;;;21.30;51.46;100609.50;4992156;28;20302;-64
2021/10/20 05:48:41;;;;;;;3.47;1.40;;;;;;;21.34;51.43;100609.03;4992077;28;20279;-63
2021/10/20 05:51:09;;;;;;;4.72;1.52;;;;;;;21.40;51.48;100601.50;4992321;28;20038;-67
2021/10/20 05:53:34;;;;;;;3.53;1.80;;;;;;;21.44;51.16;100597.53;4992329;28;20026;-61
2021/10/20 05:56:00;;;;;;;4.00;1.80;;;;;;;21.43;51.51;100564.91;4991440;28;20031;-65
2021/10/20 05:58:26;;;;;;;3.30;1.70;;;;;;;21.44;51.13;100541.88;4992856;28;20276;-65
2021/10/20 06:00:51;;;;;;;3.77;1.80;;;;;;;21.46;51.22;100553.13;4992686;28;20425;-65
2021/10/20 06:03:16;;;;;;;3.83;1.80;;;;;;;21.48;51.14;100543.25;4992262;28;20414;-63
2021/10/20 06:05:41;;;;;;;3.78;1.83;;;;;;;21.50;51.25;100547.41;4996154;28;20359;-62
2021/10/20 06:08:07;;;;;;;3.67;1.70;;;;;;;21.52;51.19;100553.41;4995501;28;20034;-63
2021/10/20 06:10:38;;;;;;;3.60;2.10;;;;;;;21.54;51.09;100543.47;4995024;28;20307;-63
2021/10/20 06:13:03;;;;;;;3.35;1.67;;;;;;;21.58;50.93;100546.66;4995413;28;20023;-62
2021/10/20 06:15:28;;;;;;;3.90;1.87;;;;;;;21.59;51.29;100552.78;4996083;28;20509;-61
2021/10/20 06:17:53;;;;;;;4.75;1.80;;;;;;;21.59;51.18;100566.03;4995147;28;20330;-63
2021/10/20 06:20:19;;;;;;;4.30;2.00;;;;;;;21.58;51.29;100549.28;4995449;28;20474;-63
2021/10/20 06:22:44;;;;;;;3.63;1.75;;;;;;;21.59;51.21;100544.81;4995554;28;20379;-63
2021/10/20 06:25:11;;;;;;;3.47;1.67;;;;;;;21.60;51.05;100555.28;4994478;28;20022;-64
2021/10/20 06:27:36;;;;;;;3.50;1.77;;;;;;;21.58;51.31;100551.94;4995719;28;20054;-62
2021/10/20 06:30:03;;;;;;;3.47;1.67;;;;;;;21.60;51.18;100565.06;4995185;28;20062;-62
2021/10/20 06:32:28;;;;;;;3.80;1.80;;;;;;;21.61;51.08;100538.38;4994627;28;20030;-63
2021/10/20 06:34:54;;;;;;;3.33;1.70;;;;;;;21.64;50.92;100540.72;4995650;28;20076;-63
2021/10/20 06:37:19;;;;;;;3.67;1.95;;;;;;;21.67;50.99;100543.06;4994305;28;20429;-63
2021/10/20 06:39:44;;;;;;;4.00;1.77;;;;;;;21.69;51.02;100546.38;4995267;28;20030;-62
2021/10/20 06:42:09;;;;;;;3.78;1.60;;;;;;;21.70;50.85;100542.75;4994880;28;20640;-63
2021/10/20 06:44:35;;;;;;;3.60;2.08;;;;;;;21.71;50.91;100548.88;4994565;28;20030;-62
2021/10/20 06:47:00;;;;;;;4.57;1.80;;;;;;;21.71;50.89;100552.41;4994877;28;20034;-62
2021/10/20 06:49:28;;;;;;;3.30;1.70;;;;;;;21.69;50.88;100559.66;4995117;28;20034;-64
2021/10/20 06:51:53;;;;;;;3.22;1.65;;;;;;;21.71;50.93;100557.69;4994073;28;20300;-63
2021/10/20 06:54:19;;;;;;;2.97;1.60;;;;;;;21.72;50.53;100571.78;4994315;28;20061;-62
2021/10/20 06:56:54;;;;;;;4.03;1.83;;;;;;;21.73;50.85;100590.19;4995012;28;20740;-64
2021/10/20 06:59:20;;;;;;;3.38;1.70;;;;;;;21.76;50.86;100586.38;4993990;28;20026;-62
2021/10/20 07:01:48;;;;;;;3.95;1.50;;;;;;;21.76;50.87;100585.56;4994854;28;20395;-63
2021/10/20 07:04:14;;;;;;;3.22;1.67;;;;;;;21.77;50.83;100595.19;4994325;28;20467;-62
2021/10/20 07:06:39;;;;;;;2.95;1.45;;;;;;;21.76;50.89;100588.22;4993837;28;20049;-64
2021/10/20 07:09:06;;;;;;;3.28;1.60;;;;;;;21.76;50.83;100574.94;4994471;28;20038;-63
2021/10/20 07:11:32;;;;;;;3.80;1.77;;;;;;;21.74;50.95;100559.19;4994689;28;20030;-63
2021/10/20 07:13:58;;;;;;;4.07;1.70;;;;;;;21.73;50.90;100546.94;4993587;28;20033;-61
2021/10/20 07:16:23;;;;;;;3.20;1.63;;;;;;;21.73;50.95;100525.72;4994606;28;20113;-63
2021/10/20 07:18:50;;;;;;;3.67;1.85;;;;;;;21.73;51.00;100484.09;4994361;28;20291;-63
2021/10/20 07:21:15;;;;;;;3.30;1.60;;;;;;;21.72;51.04;100466.53;4993288;28;20046;-63
2021/10/20 07:23:47;;;;;;;3.50;1.80;;;;;;;21.72;50.93;100474.47;4994197;28;20161;-63
2021/10/20 07:26:20;;;;;;;4.57;2.10;;;;;;;21.71;51.11;100475.47;4994108;28;20026;-64
2021/10/20 07:28:49;;;;;;;3.13;1.95;;;;;;;21.69;50.90;100445.63;4993622;28;20100;-63
2021/10/20 07:31:15;;;;;;;3.03;1.52;;;;;;;21.69;50.95;100448.25;4993753;28;20334;-61
2021/10/20 07:33:43;;;;;;;4.35;1.90;;;;;;;21.69;51.15;100468.66;4993346;28;20037;-63
2021/10/20 07:36:08;;;;;;;3.40;1.75;;;;;;;21.66;51.22;100464.50;4993653;28;20074;-64
2021/10/20 07:38:35;;;;;;;3.45;1.77;;;;;;;21.65;51.43;100432.81;4993977;28;20097;-63
2021/10/20 07:41:00;;;;;;;3.00;1.60;;;;;;;21.66;51.10;100423.88;4992826;28;20035;-63
2021/10/20 07:43:25;;;;;;;3.47;1.70;;;;;;;21.67;51.23;100402.53;4993935;28;20022;-63
2021/10/20 07:45:51;;;;;;;4.60;2.60;;;;;;;21.66;50.71;100405.34;4994002;28;20030;-63
2021/10/20 07:48:16;;;;;;;3.53;1.90;;;;;;;21.65;51.25;100395.69;4992801;28;20033;-63
2021/10/20 07:50:47;;;;;;;3.97;1.75;;;;;;;21.66;51.35;100381.47;4993675;28;20034;-63
2021/10/20 07:53:13;;;;;;;3.30;1.80;;;;;;;21.69;51.32;100371.38;4993481;28;20069;-62
2021/10/20 07:55:38;;;;;;;3.33;1.70;;;;;;;21.71;51.16;100385.31;4993030;28;20070;-63
2021/10/20 07:58:03;;;;;;;4.35;2.15;;;;;;;21.73;51.05;100385.97;4992362;28;20041;-64
2021/10/20 08:00:29;;;;;;;3.72;1.67;;;;;;;21.76;51.21;100362.78;4993661;28;20354;-65
2021/10/20 08:02:55;;;;;;;5.13;1.67;;;;;;;21.79;51.26;100346.53;4992644;28;20032;-64
2021/10/20 08:05:21;;;;;;;3.65;1.92;;;;;;;21.80;50.86;100361.47;4993293;28;20026;-64
2021/10/20 08:07:46;;;;;;;5.90;2.10;;;;;;;21.80;51.05;100359.63;4993641;28;20105;-64
2021/10/20 08:10:17;;;;;;;3.25;1.70;;;;;;;21.82;51.07;100375.41;4992524;28;20441;-64
2021/10/20 08:12:44;;;;;;;3.45;1.92;;;;;;;21.83;51.19;100377.88;4993525;28;20057;-64
2021/10/20 08:15:11;;;;;;;3.30;1.80;;;;;;;21.83;51.02;100377.88;4992994;28;20470;-64
2021/10/20 08:17:37;;;;;;;3.97;1.70;;;;;;;21.84;51.24;100378.72;4992530;28;20029;-64
2021/10/20 08:20:05;;;;;;;3.60;1.92;;;;;;;21.82;51.18;100375.41;4993272;28;20045;-64
2021/10/20 08:22:34;;;;;;;3.42;1.65;;;;;;;21.80;51.30;100375.56;4993465;28;20073;-65
2021/10/20 08:24:59;;;;;;;3.67;2.00;;;;;;;21.80;51.34;100380.03;4992253;28;20423;-61
2021/10/20 08:27:24;;;;;;;4.40;2.13;;;;;;;21.74;51.46;100368.22;4992652;28;20057;-65
2021/10/20 08:29:52;;;;;;;3.65;1.80;;;;;;;21.77;51.35;100364.44;4992740;28;20264;-65
2021/10/20 08:32:18;;;;;;;3.63;1.73;;;;;;;21.80;51.35;100377.38;4993607;28;20379;-64
2021/10/20 08:34:44;;;;;;;3.50;1.85;;;;;;;21.78;51.41;100366.09;4993814;28;20115;-63
2021/10/20 08:37:12;;;;;;;4.18;2.00;;;;;;;21.79;51.31;100383.66;4992794;28;20129;-65
2021/10/20 08:39:37;;;;;;;3.92;1.80;;;;;;;21.80;51.68;100388.81;4993345;28;20026;-63
2021/10/20 08:42:10;;;;;;;3.70;1.88;;;;;;;21.80;51.61;100382.69;4992802;28;20521;-64
2021/10/20 08:44:35;;;;;;;4.43;1.95;;;;;;;21.79;51.54;100378.38;4992208;28;20022;-63
2021/10/20 08:47:00;;;;;;;4.15;2.00;;;;;;;21.78;51.82;100397.91;4992717;28;20034;-65
2021/10/20 08:49:29;;;;;;;3.80;2.03;;;;;;;21.78;51.69;100398.75;4992927;28;20034;-63
2021/10/20 08:51:54;;;;;;;4.85;1.92;;;;;;;21.80;51.38;100386.16;4992095;28;20034;-63
2021/10/20 08:54:21;;;;;;;3.40;1.98;;;;;;;21.81;51.31;100397.59;4992428;28;20042;-63
2021/10/20 08:56:47;;;;;;;4.18;2.00;;;;;;;21.80;51.32;100395.94;4992742;28;20525;-63
2021/10/20 08:59:14;;;;;;;4.07;2.08;;;;;;;21.82;51.27;100388.66;4991619;28;20490;-64
2021/10/20 09:01:40;;;;;;;4.45;2.28;;;;;;;21.83;51.49;100390.31;4992671;28;20497;-62
2021/10/20 09:04:06;;;;;;;6.22;2.60;;;;;;;21.83;51.70;100392.97;4992452;28;20054;-65
2021/10/20 09:06:32;;;;;;;4.70;2.60;;;;;;;21.83;51.47;100379.72;4992084;28;20023;-64
2021/10/20 09:09:02;;;;;;;4.22;2.67;;;;;;;21.83;51.35;100393.81;4992552;28;20113;-64
2021/10/20 09:11:34;;;;;;;4.18;2.45;;;;;;;21.84;51.42;100381.34;4992694;28;20081;-65
2021/10/20 09:14:02;;;;;;;5.15;2.63;;;;;;;21.83;51.60;100382.38;4991895;28;20034;-63
2021/10/20 09:16:28;;;;;;;4.13;2.38;;;;;;;21.84;51.62;100382.22;4992596;28;20474;-64
2021/10/20 09:18:57;;;;;;;4.45;2.58;;;;;;;21.84;51.57;100373.41;4992884;28;20374;-64
2021/10/20 09:21:23;;;;;;;4.60;2.63;;;;;;;21.84;51.31;100366.28;4992490;28;20027;-63
2021/10/20 09:23:48;;;;;;;4.30;2.47;;;;;;;21.86;51.41;100376.75;4992694;28;20038;-63
2021/10/20 09:26:13;;;;;;;4.53;2.50;;;;;;;21.86;51.38;100368.78;4991634;28;20030;-63
2021/10/20 09:28:39;;;;;;;4.00;2.22;;;;;;;21.84;51.57;100381.34;4992461;28;20267;-65
2021/10/20 09:31:06;;;;;;;4.70;2.40;;;;;;;21.84;51.62;100374.25;4992285;28;20027;-64
2021/10/20 09:33:36;;;;;;;6.07;2.35;;;;;;;21.87;51.75;100381.03;4991686;28;20112;-64
2021/10/20 09:36:07;;;;;;;4.40;2.45;;;;;;;21.81;51.85;100385.19;4993550;28;20027;-63
2021/10/20 09:38:40;;;;;;;4.30;2.72;;;;;;;21.79;51.79;100373.06;4994041;28;20034;-64
2021/10/20 09:41:08;;;;;;;6.78;2.55;;;;;;;21.82;52.03;100375.41;4997994;28;20030;-61
2021/10/20 09:43:47;;;;;;;4.72;2.63;;;;;;;21.87;51.77;100373.94;4996888;28;20026;-58
2021/10/20 09:46:15;;;;;;;4.32;2.50;;;;;;;21.90;51.82;100373.63;4997134;28;20023;-62
2021/10/20 09:48:41;;;;;;;4.28;2.47;;;;;;;21.96;51.54;100368.66;4995594;28;20091;-62
2021/10/20 09:51:11;;;;;;;4.50;2.20;;;;;;;22.00;51.64;100364.66;4996103;28;20531;-62
2021/10/20 09:53:42;;;;;;;4.20;2.17;;;;;;;22.01;51.47;100353.88;4995781;28;20034;-65
2021/10/20 09:56:31;;;;;;;6.95;2.90;;;;;;;22.00;51.40;100354.06;4995068;28;20030;-63
2021/10/20 09:58:59;;;;;;;4.90;2.25;;;;;;;22.01;51.48;100369.00;4995718;28;20022;-64
2021/10/20 10:01:27;;;;;;;4.65;2.70;;;;;;;21.99;51.60;100373.63;4995205;28;20022;-66
2021/10/20 10:03:59;;;;;;;4.20;2.42;;;;;;;21.99;51.53;100374.47;4997616;28;20042;-65
2021/10/20 10:06:24;;;;;;;4.03;2.50;;;;;;;22.00;51.70;100362.88;4997886;28;20030;-63
2021/10/20 10:08:49;;;;;;;5.80;2.50;;;;;;;22.04;51.45;100368.66;4996085;28;20049;-64
2021/10/20 10:11:18;;;;;;;4.18;2.72;;;;;;;22.07;51.28;100376.31;4998519;28;20050;-64
2021/10/20 10:14:04;;;;;;;4.05;2.42;;;;;;;22.10;51.19;100360.88;4998306;28;20101;-63
2021/10/20 10:16:42;;;;;;;4.10;2.15;;;;;;;22.14;50.95;100363.22;4996624;28;20022;-64
2021/10/20 10:19:08;;;;;;;4.50;2.50;;;;;;;22.15;51.14;100365.72;4997354;28;20073;-63
2021/10/20 10:21:37;;;;;;;5.40;2.15;;;;;;;22.14;51.35;100358.72;4996373;28;20037;-66
2021/10/20 10:24:08;;;;;;;4.45;2.30;;;;;;;22.15;51.37;100354.28;4996190;28;20030;-62
2021/10/20 10:26:56;;;;;;;4.70;2.67;;;;;;;22.18;51.10;100359.25;4996095;28;20033;-62
2021/10/20 10:29:53;;;;;;;5.78;2.65;;;;;;;22.18;51.22;100360.06;4996342;28;20030;-64
2021/10/20 10:32:25;;;;;;;4.00;2.40;;;;;;;22.18;51.06;100352.13;4996085;28;20478;-62
2021/10/20 10:34:51;;;;;;;3.80;2.30;;;;;;;22.20;51.02;100338.69;4996135;28;20040;-62
2021/10/20 10:37:23;;;;;;;4.07;2.50;;;;;;;22.19;51.16;100345.81;4995562;28;20121;-62
2021/10/20 10:39:49;;;;;;;4.57;2.25;;;;;;;22.19;50.86;100337.84;4996516;28;20061;-62
2021/10/20 10:42:14;;;;;;;4.13;2.22;;;;;;;22.21;51.01;100335.88;4995727;28;20149;-62
2021/10/20 10:44:48;;;;;;;4.40;2.47;;;;;;;22.20;51.02;100341.34;4994849;28;20041;-66
2021/10/20 10:47:28;;;;;;;6.53;2.40;;;;;;;22.17;51.31;100341.66;4995872;28;20027;-63
2021/10/20 10:49:57;;;;;;;4.00;2.35;;;;;;;22.19;51.29;100345.81;4994795;28;20018;-65
2021/10/20 10:52:37;;;;;;;4.63;2.58;;;;;;;22.20;51.22;100346.66;4994625;28;20046;-64
2021/10/20 10:55:13;;;;;;;3.92;2.28;;;;;;;22.22;50.93;100337.53;4994655;28;20046;-62
2021/10/20 10:58:19;;;;;;;3.72;2.17;;;;;;;22.22;50.87;100328.72;4994190;28;20097;-64
2021/10/20 11:00:46;;;;;;;4.32;2.38;;;;;;;22.22;51.14;100328.72;4994585;28;20038;-63
2021/10/20 11:03:13;;;;;;;4.60;2.45;;;;;;;22.22;51.10;100318.09;4994661;28;20105;-63
2021/10/20 11:05:39;;;;;;;4.03;2.10;;;;;;;22.20;51.55;100315.63;4994079;28;20430;-63
2021/10/20 11:08:10;;;;;;;7.45;2.78;;;;;;;22.20;51.56;100320.09;4994586;28;20054;-64
2021/10/20 11:10:39;;;;;;;4.60;2.20;;;;;;;22.19;51.27;100329.03;4994665;28;20423;-66
2021/10/20 11:13:06;;;;;;;4.25;2.35;;;;;;;22.18;51.40;100330.06;4993684;28;20064;-67
2021/10/20 11:15:32;;;;;;;5.00;2.25;;;;;;;22.15;51.21;100317.94;4994932;28;20029;-67
2021/10/20 11:17:59;;;;;;;4.80;2.30;;;;;;;22.13;51.69;100319.09;4994326;28;20026;-66
2021/10/20 11:20:27;;;;;;;4.68;2.50;;;;;;;22.13;51.76;100316.44;4993651;28;20489;-65
2021/10/20 11:22:56;;;;;;;4.47;2.20;;;;;;;22.12;51.98;100328.06;4994414;28;20049;-63
2021/10/20 11:25:24;;;;;;;4.03;2.40;;;;;;;22.12;52.01;100336.03;4994893;28;20042;-66